sensor_id;sensor_type;location;lat;lon;timestamp;P1;durP1;ratioP1;P2;durP2;ratioP2
84264;SDS011;74412;45.626;5.108;2023-12-20T00:01:57;67.25;;;54.00;;
84264;SDS011;74412;45.626;5.108;2023-12-20T00:04:24;73.25;;;56.25;;
84264;SDS011;74412;45.626;5.108;2023-12-20T00:06:50;77.25;;;57.75;;
84264;SDS011;74412;45.626;5.108;2023-12-20T00:09:17;72.25;;;54.50;;
84264;SDS011;74412;45.626;5.108;2023-12-20T00:11:45;69.75;;;57.25;;
84264;SDS011;74412;45.626;5.108;2023-12-20T00:14:12;67.75;;;52.75;;
84264;SDS011;74412;45.626;5.108;2023-12-20T00:16:38;67.50;;;54.50;;
84264;SDS011;74412;45.626;5.108;2023-12-20T00:19:05;63.50;;;52.25;;
84264;SDS011;74412;45.626;5.108;2023-12-20T00:21:32;65.75;;;52.25;;
84264;SDS011;74412;45.626;5.108;2023-12-20T00:23:59;67.25;;;53.50;;
84264;SDS011;74412;45.626;5.108;2023-12-20T00:26:25;69.50;;;55.25;;
84264;SDS011;74412;45.626;5.108;2023-12-20T00:28:54;63.75;;;51.75;;
84264;SDS011;74412;45.626;5.108;2023-12-20T00:31:21;73.50;;;55.50;;
84264;SDS011;74412;45.626;5.108;2023-12-20T00:33:47;74.75;;;56.00;;
84264;SDS011;74412;45.626;5.108;2023-12-20T00:36:17;76.75;;;58.75;;
84264;SDS011;74412;45.626;5.108;2023-12-20T00:38:43;74.50;;;58.50;;
84264;SDS011;74412;45.626;5.108;2023-12-20T00:41:10;79.00;;;59.75;;
84264;SDS011;74412;45.626;5.108;2023-12-20T00:43:36;73.00;;;55.00;;
84264;SDS011;74412;45.626;5.108;2023-12-20T00:46:04;79.25;;;61.75;;
84264;SDS011;74412;45.626;5.108;2023-12-20T00:48:31;74.00;;;58.50;;
84264;SDS011;74412;45.626;5.108;2023-12-20T00:50:57;81.50;;;58.75;;
84264;SDS011;74412;45.626;5.108;2023-12-20T00:53:24;74.50;;;58.00;;
84264;SDS011;74412;45.626;5.108;2023-12-20T00:55:51;76.00;;;58.50;;
84264;SDS011;74412;45.626;5.108;2023-12-20T00:58:17;77.50;;;58.00;;
84264;SDS011;74412;45.626;5.108;2023-12-20T01:00:44;81.50;;;63.75;;
84264;SDS011;74412;45.626;5.108;2023-12-20T01:03:12;80.25;;;59.50;;
84264;SDS011;74412;45.626;5.108;2023-12-20T01:05:38;83.50;;;63.00;;
84264;SDS011;74412;45.626;5.108;2023-12-20T01:08:05;82.00;;;64.00;;
84264;SDS011;74412;45.626;5.108;2023-12-20T01:10:32;73.50;;;56.25;;
84264;SDS011;74412;45.626;5.108;2023-12-20T01:12:59;75.00;;;60.25;;
84264;SDS011;74412;45.626;5.108;2023-12-20T01:15:25;71.75;;;56.25;;
84264;SDS011;74412;45.626;5.108;2023-12-20T01:17:52;73.75;;;57.25;;
84264;SDS011;74412;45.626;5.108;2023-12-20T01:20:20;72.00;;;55.75;;
84264;SDS011;74412;45.626;5.108;2023-12-20T01:22:46;74.75;;;57.75;;
84264;SDS011;74412;45.626;5.108;2023-12-20T01:25:13;76.00;;;55.00;;
84264;SDS011;74412;45.626;5.108;2023-12-20T01:27:40;72.00;;;57.25;;
84264;SDS011;74412;45.626;5.108;2023-12-20T01:30:07;75.25;;;57.75;;
84264;SDS011;74412;45.626;5.108;2023-12-20T01:32:34;75.00;;;59.25;;
84264;SDS011;74412;45.626;5.108;2023-12-20T01:35:00;77.00;;;58.00;;
84264;SDS011;74412;45.626;5.108;2023-12-20T01:37:29;68.00;;;54.00;;
84264;SDS011;74412;45.626;5.108;2023-12-20T01:39:55;71.00;;;55.00;;
84264;SDS011;74412;45.626;5.108;2023-12-20T01:42:22;74.50;;;55.75;;
84264;SDS011;74412;45.626;5.108;2023-12-20T01:44:48;69.00;;;53.50;;
84264;SDS011;74412;45.626;5.108;2023-12-20T01:47:15;73.50;;;56.00;;
84264;SDS011;74412;45.626;5.108;2023-12-20T01:49:42;72.75;;;55.25;;
84264;SDS011;74412;45.626;5.108;2023-12-20T01:52:09;70.75;;;55.00;;
84264;SDS011;74412;45.626;5.108;2023-12-20T01:54:38;70.50;;;55.00;;
84264;SDS011;74412;45.626;5.108;2023-12-20T01:57:06;75.00;;;55.00;;
84264;SDS011;74412;45.626;5.108;2023-12-20T01:59:33;68.00;;;53.25;;
84264;SDS011;74412;45.626;5.108;2023-12-20T02:02:00;66.25;;;52.75;;
84264;SDS011;74412;45.626;5.108;2023-12-20T02:04:29;72.00;;;54.75;;
84264;SDS011;74412;45.626;5.108;2023-12-20T02:06:56;69.00;;;54.00;;
84264;SDS011;74412;45.626;5.108;2023-12-20T02:09:23;67.75;;;53.00;;
84264;SDS011;74412;45.626;5.108;2023-12-20T02:11:51;61.00;;;50.25;;
84264;SDS011;74412;45.626;5.108;2023-12-20T02:14:18;67.25;;;52.00;;
84264;SDS011;74412;45.626;5.108;2023-12-20T02:16:44;63.25;;;50.75;;
84264;SDS011;74412;45.626;5.108;2023-12-20T02:19:13;60.25;;;49.00;;
84264;SDS011;74412;45.626;5.108;2023-12-20T02:21:42;61.50;;;48.25;;
84264;SDS011;74412;45.626;5.108;2023-12-20T02:24:08;66.50;;;49.50;;
84264;SDS011;74412;45.626;5.108;2023-12-20T02:26:35;63.25;;;50.75;;
84264;SDS011;74412;45.626;5.108;2023-12-20T02:29:02;63.75;;;49.00;;
84264;SDS011;74412;45.626;5.108;2023-12-20T02:31:28;59.25;;;48.00;;
84264;SDS011;74412;45.626;5.108;2023-12-20T02:33:55;57.50;;;48.75;;
84264;SDS011;74412;45.626;5.108;2023-12-20T02:36:21;58.75;;;47.25;;
84264;SDS011;74412;45.626;5.108;2023-12-20T02:38:49;61.25;;;50.25;;
84264;SDS011;74412;45.626;5.108;2023-12-20T02:41:16;58.25;;;48.25;;
84264;SDS011;74412;45.626;5.108;2023-12-20T02:43:43;58.50;;;49.00;;
84264;SDS011;74412;45.626;5.108;2023-12-20T02:46:09;57.50;;;48.00;;
84264;SDS011;74412;45.626;5.108;2023-12-20T02:48:36;61.75;;;48.00;;
84264;SDS011;74412;45.626;5.108;2023-12-20T02:51:03;60.50;;;49.00;;
84264;SDS011;74412;45.626;5.108;2023-12-20T02:53:30;57.25;;;48.00;;
84264;SDS011;74412;45.626;5.108;2023-12-20T02:55:58;66.00;;;51.00;;
84264;SDS011;74412;45.626;5.108;2023-12-20T02:58:24;62.25;;;50.50;;
84264;SDS011;74412;45.626;5.108;2023-12-20T03:00:51;60.25;;;49.00;;
84264;SDS011;74412;45.626;5.108;2023-12-20T03:03:17;54.50;;;39.00;;
84264;SDS011;74412;45.626;5.108;2023-12-20T03:05:45;63.50;;;51.75;;
84264;SDS011;74412;45.626;5.108;2023-12-20T03:08:12;58.75;;;45.25;;
84264;SDS011;74412;45.626;5.108;2023-12-20T03:10:38;67.25;;;50.50;;
84264;SDS011;74412;45.626;5.108;2023-12-20T03:13:06;63.00;;;50.75;;
84264;SDS011;74412;45.626;5.108;2023-12-20T03:15:33;60.75;;;48.00;;
84264;SDS011;74412;45.626;5.108;2023-12-20T03:18:00;57.25;;;47.75;;
84264;SDS011;74412;45.626;5.108;2023-12-20T03:20:26;59.25;;;45.75;;
84264;SDS011;74412;45.626;5.108;2023-12-20T03:22:53;60.50;;;47.50;;
84264;SDS011;74412;45.626;5.108;2023-12-20T03:25:20;57.25;;;45.50;;
84264;SDS011;74412;45.626;5.108;2023-12-20T03:27:46;55.50;;;44.75;;
84264;SDS011;74412;45.626;5.108;2023-12-20T03:30:14;62.00;;;49.75;;
84264;SDS011;74412;45.626;5.108;2023-12-20T03:32:41;58.75;;;46.00;;
84264;SDS011;74412;45.626;5.108;2023-12-20T03:35:08;58.50;;;47.00;;
84264;SDS011;74412;45.626;5.108;2023-12-20T03:37:34;58.00;;;46.75;;
84264;SDS011;74412;45.626;5.108;2023-12-20T03:40:01;59.50;;;48.00;;
84264;SDS011;74412;45.626;5.108;2023-12-20T03:42:28;56.50;;;44.50;;
84264;SDS011;74412;45.626;5.108;2023-12-20T03:44:55;55.25;;;43.00;;
84264;SDS011;74412;45.626;5.108;2023-12-20T03:47:23;58.75;;;47.00;;
84264;SDS011;74412;45.626;5.108;2023-12-20T03:49:50;57.75;;;45.50;;
84264;SDS011;74412;45.626;5.108;2023-12-20T03:52:16;62.00;;;48.50;;
84264;SDS011;74412;45.626;5.108;2023-12-20T03:54:43;59.75;;;47.75;;
84264;SDS011;74412;45.626;5.108;2023-12-20T03:57:11;59.00;;;47.25;;
84264;SDS011;74412;45.626;5.108;2023-12-20T03:59:38;58.50;;;47.00;;
84264;SDS011;74412;45.626;5.108;2023-12-20T04:02:04;56.50;;;45.75;;
84264;SDS011;74412;45.626;5.108;2023-12-20T04:04:32;59.00;;;48.75;;
84264;SDS011;74412;45.626;5.108;2023-12-20T04:06:59;56.75;;;46.25;;
84264;SDS011;74412;45.626;5.108;2023-12-20T04:09:26;59.75;;;47.50;;
84264;SDS011;74412;45.626;5.108;2023-12-20T04:11:52;60.25;;;47.75;;
84264;SDS011;74412;45.626;5.108;2023-12-20T04:14:19;62.75;;;48.00;;
84264;SDS011;74412;45.626;5.108;2023-12-20T04:16:45;62.25;;;49.75;;
84264;SDS011;74412;45.626;5.108;2023-12-20T04:19:12;60.25;;;46.50;;
84264;SDS011;74412;45.626;5.108;2023-12-20T04:21:40;53.25;;;44.00;;
84264;SDS011;74412;45.626;5.108;2023-12-20T04:24:07;62.50;;;50.25;;
84264;SDS011;74412;45.626;5.108;2023-12-20T04:26:33;55.75;;;44.50;;
84264;SDS011;74412;45.626;5.108;2023-12-20T04:29:00;63.50;;;49.25;;
84264;SDS011;74412;45.626;5.108;2023-12-20T04:31:26;56.75;;;46.75;;
84264;SDS011;74412;45.626;5.108;2023-12-20T04:33:53;63.75;;;48.50;;
84264;SDS011;74412;45.626;5.108;2023-12-20T04:36:20;50.75;;;42.25;;
84264;SDS011;74412;45.626;5.108;2023-12-20T04:38:48;53.25;;;44.75;;
84264;SDS011;74412;45.626;5.108;2023-12-20T04:41:15;62.25;;;48.75;;
84264;SDS011;74412;45.626;5.108;2023-12-20T04:43:43;50.00;;;40.75;;
84264;SDS011;74412;45.626;5.108;2023-12-20T04:46:10;59.00;;;45.50;;
84264;SDS011;74412;45.626;5.108;2023-12-20T04:48:37;63.00;;;50.00;;
84264;SDS011;74412;45.626;5.108;2023-12-20T04:51:04;66.25;;;52.00;;
84264;SDS011;74412;45.626;5.108;2023-12-20T04:53:31;66.00;;;52.00;;
84264;SDS011;74412;45.626;5.108;2023-12-20T04:55:59;71.75;;;54.25;;
84264;SDS011;74412;45.626;5.108;2023-12-20T04:58:25;70.50;;;54.75;;
84264;SDS011;74412;45.626;5.108;2023-12-20T05:00:52;68.25;;;53.25;;
84264;SDS011;74412;45.626;5.108;2023-12-20T05:03:19;70.25;;;54.25;;
84264;SDS011;74412;45.626;5.108;2023-12-20T05:05:45;68.50;;;52.00;;
84264;SDS011;74412;45.626;5.108;2023-12-20T05:08:12;63.50;;;49.75;;
84264;SDS011;74412;45.626;5.108;2023-12-20T05:10:39;60.75;;;50.00;;
84264;SDS011;74412;45.626;5.108;2023-12-20T05:13:07;66.75;;;49.50;;
84264;SDS011;74412;45.626;5.108;2023-12-20T05:15:34;69.50;;;52.75;;
84264;SDS011;74412;45.626;5.108;2023-12-20T05:18:01;76.50;;;55.00;;
84264;SDS011;74412;45.626;5.108;2023-12-20T05:20:27;60.25;;;50.75;;
84264;SDS011;74412;45.626;5.108;2023-12-20T05:22:54;58.75;;;46.25;;
84264;SDS011;74412;45.626;5.108;2023-12-20T05:25:21;58.00;;;48.25;;
84264;SDS011;74412;45.626;5.108;2023-12-20T05:27:47;63.25;;;49.25;;
84264;SDS011;74412;45.626;5.108;2023-12-20T05:30:15;65.25;;;51.75;;
84264;SDS011;74412;45.626;5.108;2023-12-20T05:32:42;67.25;;;51.75;;
84264;SDS011;74412;45.626;5.108;2023-12-20T05:35:09;62.25;;;49.00;;
84264;SDS011;74412;45.626;5.108;2023-12-20T05:37:35;75.25;;;55.50;;
84264;SDS011;74412;45.626;5.108;2023-12-20T05:40:02;73.50;;;52.00;;
84264;SDS011;74412;45.626;5.108;2023-12-20T05:42:29;66.75;;;49.50;;
84264;SDS011;74412;45.626;5.108;2023-12-20T05:44:56;59.50;;;48.75;;
84264;SDS011;74412;45.626;5.108;2023-12-20T05:47:24;58.75;;;47.50;;
84264;SDS011;74412;45.626;5.108;2023-12-20T05:49:50;60.50;;;46.00;;
84264;SDS011;74412;45.626;5.108;2023-12-20T05:52:17;56.00;;;46.25;;
84264;SDS011;74412;45.626;5.108;2023-12-20T05:54:43;62.25;;;48.50;;
84264;SDS011;74412;45.626;5.108;2023-12-20T05:57:10;54.75;;;45.00;;
84264;SDS011;74412;45.626;5.108;2023-12-20T05:59:37;60.25;;;48.50;;
84264;SDS011;74412;45.626;5.108;2023-12-20T06:02:03;62.00;;;49.00;;
84264;SDS011;74412;45.626;5.108;2023-12-20T06:04:32;62.50;;;49.50;;
84264;SDS011;74412;45.626;5.108;2023-12-20T06:06:58;60.25;;;47.00;;
84264;SDS011;74412;45.626;5.108;2023-12-20T06:09:26;61.00;;;48.25;;
84264;SDS011;74412;45.626;5.108;2023-12-20T06:11:53;58.50;;;47.25;;
84264;SDS011;74412;45.626;5.108;2023-12-20T06:14:19;57.00;;;47.25;;
84264;SDS011;74412;45.626;5.108;2023-12-20T06:16:46;61.75;;;49.50;;
84264;SDS011;74412;45.626;5.108;2023-12-20T06:19:13;60.25;;;50.50;;
84264;SDS011;74412;45.626;5.108;2023-12-20T06:21:41;55.50;;;45.75;;
84264;SDS011;74412;45.626;5.108;2023-12-20T06:24:07;72.25;;;50.00;;
84264;SDS011;74412;45.626;5.108;2023-12-20T06:26:34;65.00;;;47.75;;
84264;SDS011;74412;45.626;5.108;2023-12-20T06:29:01;64.00;;;47.00;;
84264;SDS011;74412;45.626;5.108;2023-12-20T06:31:28;58.75;;;45.50;;
84264;SDS011;74412;45.626;5.108;2023-12-20T06:33:54;60.00;;;45.75;;
84264;SDS011;74412;45.626;5.108;2023-12-20T06:36:22;59.25;;;47.50;;
84264;SDS011;74412;45.626;5.108;2023-12-20T06:38:50;71.50;;;52.00;;
84264;SDS011;74412;45.626;5.108;2023-12-20T06:41:17;77.25;;;54.75;;
84264;SDS011;74412;45.626;5.108;2023-12-20T06:43:44;68.75;;;52.50;;
84264;SDS011;74412;45.626;5.108;2023-12-20T06:46:11;67.50;;;50.25;;
84264;SDS011;74412;45.626;5.108;2023-12-20T06:48:38;66.25;;;48.25;;
84264;SDS011;74412;45.626;5.108;2023-12-20T06:51:05;56.75;;;46.00;;
84264;SDS011;74412;45.626;5.108;2023-12-20T06:53:32;60.75;;;49.25;;
84264;SDS011;74412;45.626;5.108;2023-12-20T06:56:00;65.25;;;49.50;;
84264;SDS011;74412;45.626;5.108;2023-12-20T06:58:26;57.75;;;47.50;;
84264;SDS011;74412;45.626;5.108;2023-12-20T07:00:53;59.00;;;46.50;;
84264;SDS011;74412;45.626;5.108;2023-12-20T07:03:19;58.50;;;45.25;;
84264;SDS011;74412;45.626;5.108;2023-12-20T07:05:46;52.50;;;42.25;;
84264;SDS011;74412;45.626;5.108;2023-12-20T07:08:13;63.75;;;47.25;;
84264;SDS011;74412;45.626;5.108;2023-12-20T07:10:40;55.50;;;42.75;;
84264;SDS011;74412;45.626;5.108;2023-12-20T07:13:09;43.50;;;38.00;;
84264;SDS011;74412;45.626;5.108;2023-12-20T07:15:35;52.00;;;41.50;;
84264;SDS011;74412;45.626;5.108;2023-12-20T07:18:03;52.25;;;41.75;;
84264;SDS011;74412;45.626;5.108;2023-12-20T07:20:32;43.75;;;38.25;;
84264;SDS011;74412;45.626;5.108;2023-12-20T07:22:59;50.00;;;40.75;;
84264;SDS011;74412;45.626;5.108;2023-12-20T07:25:26;47.75;;;42.00;;
84264;SDS011;74412;45.626;5.108;2023-12-20T07:27:56;46.50;;;38.25;;
84264;SDS011;74412;45.626;5.108;2023-12-20T07:30:24;51.00;;;41.50;;
84264;SDS011;74412;45.626;5.108;2023-12-20T07:32:50;49.50;;;38.75;;
84264;SDS011;74412;45.626;5.108;2023-12-20T07:35:17;39.50;;;37.25;;
84264;SDS011;74412;45.626;5.108;2023-12-20T07:37:44;50.25;;;37.75;;
84264;SDS011;74412;45.626;5.108;2023-12-20T07:40:11;46.75;;;39.25;;
84264;SDS011;74412;45.626;5.108;2023-12-20T07:42:37;41.75;;;36.50;;
84264;SDS011;74412;45.626;5.108;2023-12-20T07:45:04;47.75;;;38.25;;
84264;SDS011;74412;45.626;5.108;2023-12-20T07:47:33;48.25;;;40.50;;
84264;SDS011;74412;45.626;5.108;2023-12-20T07:50:00;56.00;;;43.00;;
84264;SDS011;74412;45.626;5.108;2023-12-20T07:52:27;57.50;;;43.25;;
84264;SDS011;74412;45.626;5.108;2023-12-20T07:54:55;62.75;;;46.25;;
84264;SDS011;74412;45.626;5.108;2023-12-20T07:57:21;49.50;;;40.25;;
84264;SDS011;74412;45.626;5.108;2023-12-20T07:59:48;66.75;;;51.25;;
84264;SDS011;74412;45.626;5.108;2023-12-20T08:02:15;61.75;;;48.00;;
84264;SDS011;74412;45.626;5.108;2023-12-20T08:04:43;55.00;;;42.00;;
84264;SDS011;74412;45.626;5.108;2023-12-20T08:07:09;68.00;;;49.75;;
84264;SDS011;74412;45.626;5.108;2023-12-20T08:09:36;63.50;;;48.50;;
84264;SDS011;74412;45.626;5.108;2023-12-20T08:12:03;53.50;;;43.75;;
84264;SDS011;74412;45.626;5.108;2023-12-20T08:14:30;52.25;;;42.50;;
84264;SDS011;74412;45.626;5.108;2023-12-20T08:16:56;51.75;;;41.75;;
84264;SDS011;74412;45.626;5.108;2023-12-20T08:19:23;59.50;;;46.25;;
84264;SDS011;74412;45.626;5.108;2023-12-20T08:21:51;54.50;;;43.75;;
84264;SDS011;74412;45.626;5.108;2023-12-20T08:24:17;64.00;;;49.50;;
84264;SDS011;74412;45.626;5.108;2023-12-20T08:26:44;59.75;;;47.00;;
84264;SDS011;74412;45.626;5.108;2023-12-20T08:29:12;61.50;;;48.50;;
84264;SDS011;74412;45.626;5.108;2023-12-20T08:31:39;58.50;;;42.00;;
84264;SDS011;74412;45.626;5.108;2023-12-20T08:34:06;65.25;;;50.25;;
84264;SDS011;74412;45.626;5.108;2023-12-20T08:36:32;55.75;;;45.50;;
84264;SDS011;74412;45.626;5.108;2023-12-20T08:39:00;58.50;;;44.75;;
84264;SDS011;74412;45.626;5.108;2023-12-20T08:41:28;59.00;;;46.50;;
84264;SDS011;74412;45.626;5.108;2023-12-20T08:43:55;55.50;;;42.75;;
84264;SDS011;74412;45.626;5.108;2023-12-20T08:46:21;59.00;;;45.00;;
84264;SDS011;74412;45.626;5.108;2023-12-20T08:48:48;51.00;;;40.00;;
84264;SDS011;74412;45.626;5.108;2023-12-20T08:51:15;55.25;;;40.00;;
84264;SDS011;74412;45.626;5.108;2023-12-20T08:53:41;54.00;;;44.00;;
84264;SDS011;74412;45.626;5.108;2023-12-20T08:56:12;52.00;;;42.00;;
84264;SDS011;74412;45.626;5.108;2023-12-20T08:58:39;59.25;;;46.75;;
84264;SDS011;74412;45.626;5.108;2023-12-20T09:01:06;42.25;;;36.75;;
84264;SDS011;74412;45.626;5.108;2023-12-20T09:03:32;53.25;;;43.25;;
84264;SDS011;74412;45.626;5.108;2023-12-20T09:05:59;57.00;;;43.50;;
84264;SDS011;74412;45.626;5.108;2023-12-20T09:08:26;52.50;;;42.25;;
84264;SDS011;74412;45.626;5.108;2023-12-20T09:10:52;52.25;;;40.25;;
84264;SDS011;74412;45.626;5.108;2023-12-20T09:13:20;52.00;;;39.00;;
84264;SDS011;74412;45.626;5.108;2023-12-20T09:15:51;47.25;;;37.50;;
84264;SDS011;74412;45.626;5.108;2023-12-20T09:18:18;51.00;;;39.50;;
84264;SDS011;74412;45.626;5.108;2023-12-20T09:20:45;43.75;;;39.50;;
84264;SDS011;74412;45.626;5.108;2023-12-20T09:23:11;39.75;;;34.75;;
84264;SDS011;74412;45.626;5.108;2023-12-20T09:25:38;39.50;;;35.25;;
84264;SDS011;74412;45.626;5.108;2023-12-20T09:28:05;47.50;;;38.00;;
84264;SDS011;74412;45.626;5.108;2023-12-20T09:30:33;35.00;;;30.75;;
84264;SDS011;74412;45.626;5.108;2023-12-20T09:33:00;43.50;;;35.75;;
84264;SDS011;74412;45.626;5.108;2023-12-20T09:35:27;39.00;;;32.25;;
84264;SDS011;74412;45.626;5.108;2023-12-20T09:37:56;45.25;;;35.25;;
84264;SDS011;74412;45.626;5.108;2023-12-20T09:40:25;41.00;;;34.00;;
84264;SDS011;74412;45.626;5.108;2023-12-20T09:42:55;37.50;;;33.00;;
84264;SDS011;74412;45.626;5.108;2023-12-20T09:45:23;44.00;;;35.75;;
84264;SDS011;74412;45.626;5.108;2023-12-20T09:47:52;32.50;;;32.50;;
84264;SDS011;74412;45.626;5.108;2023-12-20T09:50:20;40.50;;;31.75;;
84264;SDS011;74412;45.626;5.108;2023-12-20T09:52:47;42.00;;;34.75;;
84264;SDS011;74412;45.626;5.108;2023-12-20T09:55:17;43.50;;;38.00;;
84264;SDS011;74412;45.626;5.108;2023-12-20T09:57:43;41.50;;;36.00;;
84264;SDS011;74412;45.626;5.108;2023-12-20T10:00:11;47.25;;;36.00;;
84264;SDS011;74412;45.626;5.108;2023-12-20T10:02:38;41.50;;;37.00;;
84264;SDS011;74412;45.626;5.108;2023-12-20T10:05:13;36.00;;;34.25;;
84264;SDS011;74412;45.626;5.108;2023-12-20T10:07:44;49.00;;;35.75;;
84264;SDS011;74412;45.626;5.108;2023-12-20T10:10:10;39.75;;;35.75;;
84264;SDS011;74412;45.626;5.108;2023-12-20T10:12:39;41.50;;;36.50;;
84264;SDS011;74412;45.626;5.108;2023-12-20T10:15:09;40.00;;;35.75;;
84264;SDS011;74412;45.626;5.108;2023-12-20T10:17:36;43.25;;;33.50;;
84264;SDS011;74412;45.626;5.108;2023-12-20T10:20:03;44.75;;;37.25;;
84264;SDS011;74412;45.626;5.108;2023-12-20T10:22:36;46.75;;;36.50;;
84264;SDS011;74412;45.626;5.108;2023-12-20T10:25:03;44.50;;;36.00;;
84264;SDS011;74412;45.626;5.108;2023-12-20T10:27:30;30.50;;;26.25;;
84264;SDS011;74412;45.626;5.108;2023-12-20T10:29:58;45.00;;;39.75;;
84264;SDS011;74412;45.626;5.108;2023-12-20T10:32:25;46.25;;;36.25;;
84264;SDS011;74412;45.626;5.108;2023-12-20T10:34:53;44.75;;;37.50;;
84264;SDS011;74412;45.626;5.108;2023-12-20T10:37:20;36.50;;;34.75;;
84264;SDS011;74412;45.626;5.108;2023-12-20T10:39:49;47.25;;;37.00;;
84264;SDS011;74412;45.626;5.108;2023-12-20T10:42:21;46.75;;;36.00;;
84264;SDS011;74412;45.626;5.108;2023-12-20T10:44:48;49.75;;;37.00;;
84264;SDS011;74412;45.626;5.108;2023-12-20T10:47:15;23.75;;;19.75;;
84264;SDS011;74412;45.626;5.108;2023-12-20T10:49:43;41.50;;;36.25;;
84264;SDS011;74412;45.626;5.108;2023-12-20T10:52:11;38.50;;;35.75;;
84264;SDS011;74412;45.626;5.108;2023-12-20T10:54:38;40.50;;;35.25;;
84264;SDS011;74412;45.626;5.108;2023-12-20T10:57:07;39.50;;;32.25;;
84264;SDS011;74412;45.626;5.108;2023-12-20T10:59:35;46.00;;;38.75;;
84264;SDS011;74412;45.626;5.108;2023-12-20T11:02:03;38.00;;;36.25;;
84264;SDS011;74412;45.626;5.108;2023-12-20T11:04:33;41.00;;;33.50;;
84264;SDS011;74412;45.626;5.108;2023-12-20T11:07:06;43.75;;;37.50;;
84264;SDS011;74412;45.626;5.108;2023-12-20T11:09:43;39.00;;;36.25;;
84264;SDS011;74412;45.626;5.108;2023-12-20T11:12:17;38.75;;;34.50;;
84264;SDS011;74412;45.626;5.108;2023-12-20T11:14:51;28.50;;;26.00;;
84264;SDS011;74412;45.626;5.108;2023-12-20T11:17:20;31.75;;;28.75;;
84264;SDS011;74412;45.626;5.108;2023-12-20T11:20:09;32.00;;;30.00;;
84264;SDS011;74412;45.626;5.108;2023-12-20T11:22:39;41.50;;;36.00;;
84264;SDS011;74412;45.626;5.108;2023-12-20T11:25:17;33.00;;;30.00;;
84264;SDS011;74412;45.626;5.108;2023-12-20T11:27:47;31.50;;;29.25;;
84264;SDS011;74412;45.626;5.108;2023-12-20T11:30:42;23.75;;;21.75;;
84264;SDS011;74412;45.626;5.108;2023-12-20T11:33:12;29.00;;;26.25;;
84264;SDS011;74412;45.626;5.108;2023-12-20T11:35:39;27.50;;;22.50;;
84264;SDS011;74412;45.626;5.108;2023-12-20T11:38:07;23.00;;;22.00;;
84264;SDS011;74412;45.626;5.108;2023-12-20T11:40:34;19.00;;;17.50;;
84264;SDS011;74412;45.626;5.108;2023-12-20T11:43:03;19.50;;;19.50;;
84264;SDS011;74412;45.626;5.108;2023-12-20T11:45:30;16.75;;;15.50;;
84264;SDS011;74412;45.626;5.108;2023-12-20T11:47:57;20.25;;;17.50;;
84264;SDS011;74412;45.626;5.108;2023-12-20T11:50:24;21.75;;;19.75;;
84264;SDS011;74412;45.626;5.108;2023-12-20T11:52:51;18.00;;;14.25;;
84264;SDS011;74412;45.626;5.108;2023-12-20T11:55:19;13.25;;;11.75;;
84264;SDS011;74412;45.626;5.108;2023-12-20T11:57:45;15.75;;;13.00;;
84264;SDS011;74412;45.626;5.108;2023-12-20T12:00:14;16.25;;;14.25;;
84264;SDS011;74412;45.626;5.108;2023-12-20T12:02:41;14.25;;;13.00;;
84264;SDS011;74412;45.626;5.108;2023-12-20T12:05:08;16.50;;;16.50;;
84264;SDS011;74412;45.626;5.108;2023-12-20T12:07:35;13.50;;;12.75;;
84264;SDS011;74412;45.626;5.108;2023-12-20T12:10:02;12.25;;;11.50;;
84264;SDS011;74412;45.626;5.108;2023-12-20T12:12:29;15.50;;;13.50;;
84264;SDS011;74412;45.626;5.108;2023-12-20T12:14:57;11.25;;;11.25;;
84264;SDS011;74412;45.626;5.108;2023-12-20T12:17:25;14.75;;;13.25;;
84264;SDS011;74412;45.626;5.108;2023-12-20T12:19:52;10.75;;;10.75;;
84264;SDS011;74412;45.626;5.108;2023-12-20T12:22:29;12.75;;;12.00;;
84264;SDS011;74412;45.626;5.108;2023-12-20T12:24:58;13.00;;;12.75;;
84264;SDS011;74412;45.626;5.108;2023-12-20T12:27:35;14.25;;;13.00;;
84264;SDS011;74412;45.626;5.108;2023-12-20T12:30:03;18.75;;;13.75;;
84264;SDS011;74412;45.626;5.108;2023-12-20T12:32:34;15.75;;;14.25;;
84264;SDS011;74412;45.626;5.108;2023-12-20T12:35:02;8.50;;;8.50;;
84264;SDS011;74412;45.626;5.108;2023-12-20T12:37:31;13.00;;;12.00;;
84264;SDS011;74412;45.626;5.108;2023-12-20T12:39:59;9.75;;;9.50;;
84264;SDS011;74412;45.626;5.108;2023-12-20T12:42:26;6.75;;;6.75;;
84264;SDS011;74412;45.626;5.108;2023-12-20T12:44:54;9.00;;;7.00;;
84264;SDS011;74412;45.626;5.108;2023-12-20T12:47:20;9.00;;;7.00;;
84264;SDS011;74412;45.626;5.108;2023-12-20T12:49:48;10.25;;;10.00;;
84264;SDS011;74412;45.626;5.108;2023-12-20T12:52:16;10.25;;;9.00;;
84264;SDS011;74412;45.626;5.108;2023-12-20T12:54:43;10.00;;;10.00;;
84264;SDS011;74412;45.626;5.108;2023-12-20T12:57:10;14.00;;;12.75;;
84264;SDS011;74412;45.626;5.108;2023-12-20T12:59:36;13.75;;;12.75;;
84264;SDS011;74412;45.626;5.108;2023-12-20T13:02:03;13.75;;;13.00;;
84264;SDS011;74412;45.626;5.108;2023-12-20T13:04:30;11.00;;;11.00;;
84264;SDS011;74412;45.626;5.108;2023-12-20T13:06:58;15.75;;;11.25;;
84264;SDS011;74412;45.626;5.108;2023-12-20T13:09:25;7.25;;;7.25;;
84264;SDS011;74412;45.626;5.108;2023-12-20T13:11:51;13.75;;;13.00;;
84264;SDS011;74412;45.626;5.108;2023-12-20T13:14:18;9.00;;;7.75;;
84264;SDS011;74412;45.626;5.108;2023-12-20T13:16:44;10.25;;;7.00;;
84264;SDS011;74412;45.626;5.108;2023-12-20T13:19:11;12.50;;;10.00;;
84264;SDS011;74412;45.626;5.108;2023-12-20T13:21:38;9.50;;;9.50;;
84264;SDS011;74412;45.626;5.108;2023-12-20T13:24:06;6.00;;;6.00;;
84264;SDS011;74412;45.626;5.108;2023-12-20T13:26:33;8.00;;;7.00;;
84264;SDS011;74412;45.626;5.108;2023-12-20T13:29:00;7.00;;;6.00;;
84264;SDS011;74412;45.626;5.108;2023-12-20T13:31:26;5.25;;;5.25;;
84264;SDS011;74412;45.626;5.108;2023-12-20T13:33:53;5.25;;;5.25;;
84264;SDS011;74412;45.626;5.108;2023-12-20T13:36:20;7.00;;;7.00;;
84264;SDS011;74412;45.626;5.108;2023-12-20T13:38:46;6.00;;;4.50;;
84264;SDS011;74412;45.626;5.108;2023-12-20T13:41:14;6.00;;;5.25;;
84264;SDS011;74412;45.626;5.108;2023-12-20T13:43:41;10.25;;;7.00;;
84264;SDS011;74412;45.626;5.108;2023-12-20T13:46:07;5.25;;;5.25;;
84264;SDS011;74412;45.626;5.108;2023-12-20T13:48:34;5.25;;;5.00;;
84264;SDS011;74412;45.626;5.108;2023-12-20T13:51:01;8.00;;;6.75;;
84264;SDS011;74412;45.626;5.108;2023-12-20T13:53:28;5.00;;;5.00;;
84264;SDS011;74412;45.626;5.108;2023-12-20T13:55:55;5.50;;;3.25;;
84264;SDS011;74412;45.626;5.108;2023-12-20T13:58:24;5.75;;;5.00;;
84264;SDS011;74412;45.626;5.108;2023-12-20T14:00:50;4.50;;;4.50;;
84264;SDS011;74412;45.626;5.108;2023-12-20T14:03:17;5.50;;;5.00;;
84264;SDS011;74412;45.626;5.108;2023-12-20T14:05:44;4.00;;;4.00;;
84264;SDS011;74412;45.626;5.108;2023-12-20T14:08:11;8.00;;;3.25;;
84264;SDS011;74412;45.626;5.108;2023-12-20T14:10:38;6.50;;;5.00;;
84264;SDS011;74412;45.626;5.108;2023-12-20T14:13:03;7.75;;;5.00;;
84264;SDS011;74412;45.626;5.108;2023-12-20T14:15:31;4.00;;;4.00;;
84264;SDS011;74412;45.626;5.108;2023-12-20T14:18:02;3.25;;;3.00;;
84264;SDS011;74412;45.626;5.108;2023-12-20T14:20:30;1.25;;;1.25;;
84264;SDS011;74412;45.626;5.108;2023-12-20T14:22:56;1.00;;;1.00;;
84264;SDS011;74412;45.626;5.108;2023-12-20T14:25:23;1.00;;;1.00;;